Time;durP1;ratioP1;P1;durP2;ratioP2;P2;SDS_P1;SDS_P2;PMS_P1;PMS_P2;Temp;Humidity;BMP_temperature;BMP_pressure;BME280_temperature;BME280_humidity;BME280_pressure;Samples;Min_cycle;Max_cycle;Signal;HPM_P1;HPM_P2
2022/12/18 00:02:14;;;;;;;108.88;36.78;;;;;;;;;;4982418;28;20046;-76
2022/12/18 00:04:41;;;;;;;128.48;39.83;;;;;;;;;;4984889;28;20053;-76
2022/12/18 00:07:09;;;;;;;113.43;38.45;;;;;;;;;;4977013;28;20149;-76
2022/12/18 00:09:36;;;;;;;122.32;38.63;;;;;;;;;;4973879;28;20049;-76
2022/12/18 00:12:03;;;;;;;106.53;36.50;;;;;;;;;;5024139;28;20058;-75
2022/12/18 00:14:32;;;;;;;107.63;37.58;;;;;;;;;;5000597;28;20053;-77
2022/12/18 00:17:00;;;;;;;110.72;38.47;;;;;;;;;;4991552;28;20046;-76
2022/12/18 00:19:27;;;;;;;112.50;36.85;;;;;;;;;;4997370;28;20041;-76
2022/12/18 00:21:57;;;;;;;110.78;37.63;;;;;;;;;;4982968;28;20765;-76
2022/12/18 00:24:25;;;;;;;114.95;37.80;;;;;;;;;;5001431;28;20058;-77
2022/12/18 00:26:52;;;;;;;117.40;37.67;;;;;;;;;;4997095;28;20803;-76
2022/12/18 00:29:19;;;;;;;111.47;37.97;;;;;;;;;;4991255;28;20053;-76
2022/12/18 00:31:48;;;;;;;109.35;36.67;;;;;;;;;;5001591;28;20447;-76
2022/12/18 00:34:15;;;;;;;112.90;38.03;;;;;;;;;;5002619;28;20123;-77
2022/12/18 00:36:43;;;;;;;118.32;39.92;;;;;;;;;;4994130;28;20061;-76
2022/12/18 00:39:11;;;;;;;111.45;39.97;;;;;;;;;;5002650;28;20053;-76
2022/12/18 00:44:24;;;;;;;97.25;35.63;;;;;;;;;;4995487;28;20072;-76
2022/12/18 00:46:52;;;;;;;113.03;36.70;;;;;;;;;;5006847;28;20049;-76
2022/12/18 00:49:20;;;;;;;107.57;35.20;;;;;;;;;;5001851;28;20069;-77
2022/12/18 00:51:48;;;;;;;110.80;38.33;;;;;;;;;;5002939;28;20062;-77
2022/12/18 00:54:15;;;;;;;111.60;38.63;;;;;;;;;;5005594;28;20079;-77
2022/12/18 00:56:43;;;;;;;110.57;38.17;;;;;;;;;;4993127;28;20050;-76
2022/12/18 00:59:10;;;;;;;116.90;40.03;;;;;;;;;;4989687;28;20057;-77
2022/12/18 01:01:39;;;;;;;114.68;36.80;;;;;;;;;;4987283;28;20053;-77
2022/12/18 01:04:08;;;;;;;108.82;38.67;;;;;;;;;;5000311;28;20543;-77
2022/12/18 01:06:35;;;;;;;115.03;38.28;;;;;;;;;;5006799;28;20049;-77
2022/12/18 01:09:03;;;;;;;111.38;38.55;;;;;;;;;;5038600;28;20060;-77
2022/12/18 01:11:30;;;;;;;108.78;37.35;;;;;;;;;;5005789;28;20054;-76
2022/12/18 01:13:57;;;;;;;107.03;35.47;;;;;;;;;;4996638;28;20042;-77
2022/12/18 01:16:25;;;;;;;105.70;39.10;;;;;;;;;;5006844;28;20061;-77
2022/12/18 01:18:53;;;;;;;98.45;36.03;;;;;;;;;;5000942;28;20056;-76
2022/12/18 01:21:22;;;;;;;103.28;35.42;;;;;;;;;;5003475;28;20049;-77
2022/12/18 01:23:52;;;;;;;108.95;35.53;;;;;;;;;;5003587;28;20107;-77
2022/12/18 01:26:19;;;;;;;94.38;33.97;;;;;;;;;;5004041;28;20049;-76
2022/12/18 01:28:46;;;;;;;93.50;34.28;;;;;;;;;;5006232;28;20651;-76
2022/12/18 01:31:15;;;;;;;93.18;34.20;;;;;;;;;;5003944;28;20049;-77
2022/12/18 01:33:42;;;;;;;87.03;32.75;;;;;;;;;;5005355;28;20381;-78
2022/12/18 01:36:09;;;;;;;96.22;33.05;;;;;;;;;;5005846;28;20061;-77
2022/12/18 01:38:38;;;;;;;96.18;33.83;;;;;;;;;;4994169;28;20181;-77
2022/12/18 01:41:05;;;;;;;93.72;32.38;;;;;;;;;;5002890;28;20049;-77
2022/12/18 01:43:43;;;;;;;96.97;32.53;;;;;;;;;;5002589;28;20058;-77
2022/12/18 01:46:10;;;;;;;97.50;32.63;;;;;;;;;;5017033;28;20049;-77
2022/12/18 01:48:38;;;;;;;100.25;33.22;;;;;;;;;;5005665;28;20057;-77
2022/12/18 01:51:06;;;;;;;92.93;31.88;;;;;;;;;;5006120;28;20049;-76
2022/12/18 01:53:33;;;;;;;94.35;33.13;;;;;;;;;;5004156;28;20049;-78
2022/12/18 01:56:02;;;;;;;98.40;34.55;;;;;;;;;;5007572;28;20052;-77
2022/12/18 01:58:32;;;;;;;95.50;32.40;;;;;;;;;;5003678;28;20057;-77
2022/12/18 02:00:59;;;;;;;96.25;34.25;;;;;;;;;;5009268;28;20045;-78
2022/12/18 02:03:26;;;;;;;89.85;32.45;;;;;;;;;;5004928;28;20065;-76
2022/12/18 02:05:58;;;;;;;89.22;30.17;;;;;;;;;;5001107;28;20499;-76
2022/12/18 02:08:29;;;;;;;82.70;30.48;;;;;;;;;;5003282;28;20441;-77
2022/12/18 02:11:02;;;;;;;91.28;32.47;;;;;;;;;;5001819;28;20061;-77
2022/12/18 02:13:37;;;;;;;89.78;31.10;;;;;;;;;;5000501;28;20178;-77
2022/12/18 02:16:09;;;;;;;81.88;29.13;;;;;;;;;;4987843;28;20046;-78
2022/12/18 02:18:38;;;;;;;84.35;29.70;;;;;;;;;;4990360;28;20525;-77
2022/12/18 02:21:10;;;;;;;84.50;29.70;;;;;;;;;;5001486;28;20061;-77
2022/12/18 02:23:42;;;;;;;92.78;31.65;;;;;;;;;;5004051;28;20948;-77
2022/12/18 02:26:16;;;;;;;88.07;31.85;;;;;;;;;;5005487;28;20052;-77
2022/12/18 02:28:45;;;;;;;96.28;31.45;;;;;;;;;;5003599;28;20053;-77
2022/12/18 02:31:16;;;;;;;92.97;30.95;;;;;;;;;;5004719;28;20056;-77
2022/12/18 02:33:45;;;;;;;83.60;30.08;;;;;;;;;;5001356;28;20464;-78
2022/12/18 02:36:13;;;;;;;88.63;29.45;;;;;;;;;;5004649;28;20072;-77
2022/12/18 02:38:41;;;;;;;92.45;31.48;;;;;;;;;;4992349;28;20064;-77
2022/12/18 02:41:08;;;;;;;88.55;30.42;;;;;;;;;;5004283;28;20049;-77
2022/12/18 02:43:37;;;;;;;96.30;32.55;;;;;;;;;;5002859;28;20065;-77
2022/12/18 02:46:19;;;;;;;92.22;30.02;;;;;;;;;;5006100;28;20072;-77
2022/12/18 02:48:46;;;;;;;100.45;31.27;;;;;;;;;;5017663;28;20155;-77
2022/12/18 02:51:19;;;;;;;99.00;33.20;;;;;;;;;;5004009;28;20045;-77
2022/12/18 02:53:47;;;;;;;94.43;30.90;;;;;;;;;;4988447;28;20049;-77
2022/12/18 02:56:17;;;;;;;98.28;31.23;;;;;;;;;;4997843;28;20053;-77
2022/12/18 02:58:49;;;;;;;88.38;29.80;;;;;;;;;;4998807;28;20496;-77
2022/12/18 03:01:18;;;;;;;92.68;29.65;;;;;;;;;;5003096;28;20053;-77
2022/12/18 03:03:48;;;;;;;92.60;30.60;;;;;;;;;;4993444;28;20518;-78
2022/12/18 03:06:19;;;;;;;87.18;29.30;;;;;;;;;;5000227;28;20534;-78
2022/12/18 03:08:50;;;;;;;94.55;29.17;;;;;;;;;;5001475;28;20060;-78
2022/12/18 03:12:22;;;;;;;89.93;29.65;;;;;;;;;;5003386;28;20045;-78
2022/12/18 03:14:08;;;;;;;89.45;28.63;;;;;;;;;;5000969;28;20045;-78
2022/12/18 03:16:36;;;;;;;92.97;29.52;;;;;;;;;;5002146;28;20061;-78
2022/12/18 03:19:05;;;;;;;92.97;29.38;;;;;;;;;;5003136;28;20053;-78
2022/12/18 03:21:35;;;;;;;94.82;29.63;;;;;;;;;;4996520;28;20053;-78
2022/12/18 03:24:05;;;;;;;88.78;29.60;;;;;;;;;;5003381;28;21055;-78
2022/12/18 03:26:32;;;;;;;97.68;30.10;;;;;;;;;;4997206;28;20050;-78
2022/12/18 03:29:01;;;;;;;90.90;28.25;;;;;;;;;;5001592;28;20145;-78
2022/12/18 03:31:31;;;;;;;95.03;30.98;;;;;;;;;;4998808;28;20069;-78
2022/12/18 03:34:00;;;;;;;93.00;29.45;;;;;;;;;;5001071;28;20041;-78
2022/12/18 03:36:28;;;;;;;83.07;27.75;;;;;;;;;;5002733;28;20045;-79
2022/12/18 03:38:55;;;;;;;93.30;31.02;;;;;;;;;;4998178;28;20054;-78
2022/12/18 03:41:29;;;;;;;81.15;27.92;;;;;;;;;;5002226;28;20046;-78
2022/12/18 03:44:00;;;;;;;99.68;30.48;;;;;;;;;;4999355;28;20111;-78
2022/12/18 03:46:29;;;;;;;88.93;28.58;;;;;;;;;;5002650;28;20120;-78
2022/12/18 03:49:01;;;;;;;93.82;28.45;;;;;;;;;;5001456;28;20069;-78
2022/12/18 03:51:33;;;;;;;86.32;28.92;;;;;;;;;;4994425;28;20309;-78
2022/12/18 03:54:01;;;;;;;87.65;28.25;;;;;;;;;;4997958;28;20041;-78
2022/12/18 03:56:31;;;;;;;79.75;26.95;;;;;;;;;;4996587;28;20046;-78
2022/12/18 03:59:00;;;;;;;89.25;27.95;;;;;;;;;;4999723;28;20060;-78
2022/12/18 04:01:30;;;;;;;83.55;26.25;;;;;;;;;;4999927;28;20053;-78
2022/12/18 04:03:58;;;;;;;85.47;27.23;;;;;;;;;;5000667;28;20441;-78
2022/12/18 04:06:27;;;;;;;90.70;30.33;;;;;;;;;;5002183;28;20057;-78
2022/12/18 04:08:54;;;;;;;81.53;26.73;;;;;;;;;;4998952;28;20063;-78
2022/12/18 04:11:22;;;;;;;87.50;28.40;;;;;;;;;;5003833;28;20693;-78
2022/12/18 04:13:49;;;;;;;89.45;26.92;;;;;;;;;;5000769;28;20045;-78
2022/12/18 04:16:16;;;;;;;87.60;27.58;;;;;;;;;;5004855;28;20565;-78
2022/12/18 04:18:44;;;;;;;99.35;29.10;;;;;;;;;;5000893;28;20061;-78
2022/12/18 04:21:11;;;;;;;95.05;28.40;;;;;;;;;;5007957;28;20076;-78
2022/12/18 04:23:40;;;;;;;90.63;28.02;;;;;;;;;;5009277;28;20609;-78
2022/12/18 04:26:07;;;;;;;87.40;27.50;;;;;;;;;;5007221;28;20075;-78
2022/12/18 04:28:35;;;;;;;95.65;29.25;;;;;;;;;;5009399;28;20045;-78
2022/12/18 04:31:02;;;;;;;89.20;29.17;;;;;;;;;;5008252;28;20049;-78
2022/12/18 04:33:29;;;;;;;83.80;27.80;;;;;;;;;;5009507;28;20061;-78
2022/12/18 04:35:57;;;;;;;85.22;28.75;;;;;;;;;;5005164;28;20053;-79
2022/12/18 04:38:24;;;;;;;84.40;28.00;;;;;;;;;;5006083;28;20081;-78
2022/12/18 04:40:53;;;;;;;95.63;28.50;;;;;;;;;;5004678;28;20049;-78
2022/12/18 04:43:20;;;;;;;93.80;29.55;;;;;;;;;;5008586;28;20125;-78
2022/12/18 04:45:47;;;;;;;102.10;29.17;;;;;;;;;;5004747;28;20041;-78
2022/12/18 04:48:15;;;;;;;97.82;31.08;;;;;;;;;;5006376;28;20060;-78
2022/12/18 04:50:42;;;;;;;95.65;31.25;;;;;;;;;;5005029;28;20102;-79
2022/12/18 04:53:09;;;;;;;96.22;30.08;;;;;;;;;;5007210;28;20437;-78
2022/12/18 04:55:36;;;;;;;88.82;29.45;;;;;;;;;;5005955;28;20065;-78
2022/12/18 04:58:05;;;;;;;96.93;30.70;;;;;;;;;;5002398;28;20046;-78
2022/12/18 05:00:32;;;;;;;85.03;29.77;;;;;;;;;;4998986;28;20053;-79
2022/12/18 05:03:02;;;;;;;86.22;29.13;;;;;;;;;;5003655;28;20698;-78
2022/12/18 05:05:29;;;;;;;103.72;32.35;;;;;;;;;;5002709;28;20053;-78
2022/12/18 05:07:56;;;;;;;104.00;30.95;;;;;;;;;;5004059;28;20045;-78
2022/12/18 05:10:24;;;;;;;98.13;30.73;;;;;;;;;;5003771;28;20049;-78
2022/12/18 05:13:01;;;;;;;83.80;27.90;;;;;;;;;;4981987;28;20153;-78
2022/12/18 05:15:30;;;;;;;86.22;28.80;;;;;;;;;;4983828;28;20400;-78
2022/12/18 05:17:57;;;;;;;90.22;29.83;;;;;;;;;;4984140;28;20049;-78
2022/12/18 05:20:25;;;;;;;84.97;28.75;;;;;;;;;;4985377;28;20768;-78
2022/12/18 05:22:52;;;;;;;94.15;28.23;;;;;;;;;;4979139;28;20047;-78
2022/12/18 05:25:20;;;;;;;97.20;30.83;;;;;;;;;;4984608;28;20049;-78
2022/12/18 05:27:47;;;;;;;87.78;29.85;;;;;;;;;;4984419;28;20063;-78
2022/12/18 05:30:15;;;;;;;83.10;26.65;;;;;;;;;;4982404;28;20049;-78
2022/12/18 05:32:44;;;;;;;96.97;29.10;;;;;;;;;;4982581;28;20038;-77
2022/12/18 05:35:12;;;;;;;102.20;30.42;;;;;;;;;;4983794;28;20168;-78
2022/12/18 05:37:39;;;;;;;96.63;28.92;;;;;;;;;;4968549;28;20046;-78
2022/12/18 05:40:07;;;;;;;81.75;27.80;;;;;;;;;;4979821;28;20054;-78
2022/12/18 05:42:34;;;;;;;90.28;28.23;;;;;;;;;;4982273;28;20389;-78
2022/12/18 05:45:02;;;;;;;88.43;27.63;;;;;;;;;;4976682;28;20069;-78
2022/12/18 05:47:29;;;;;;;92.13;29.23;;;;;;;;;;4981611;28;20761;-78
2022/12/18 05:49:58;;;;;;;78.10;26.33;;;;;;;;;;4978889;28;20046;-78
2022/12/18 05:52:25;;;;;;;84.63;28.00;;;;;;;;;;4983308;28;20038;-78
2022/12/18 05:54:53;;;;;;;72.03;25.17;;;;;;;;;;4978863;28;20545;-78
2022/12/18 05:57:20;;;;;;;83.28;27.30;;;;;;;;;;4982592;28;20041;-78
2022/12/18 05:59:47;;;;;;;79.03;25.48;;;;;;;;;;4980147;28;20054;-78
2022/12/18 06:02:14;;;;;;;78.97;26.35;;;;;;;;;;4983720;28;20405;-78
2022/12/18 06:04:42;;;;;;;77.22;26.40;;;;;;;;;;4977036;28;20053;-78
2022/12/18 06:07:10;;;;;;;79.65;25.83;;;;;;;;;;4981733;28;20085;-78
2022/12/18 06:09:37;;;;;;;70.90;24.92;;;;;;;;;;4978828;28;20417;-77
2022/12/18 06:12:05;;;;;;;69.85;24.73;;;;;;;;;;4987007;28;20500;-78
2022/12/18 06:14:32;;;;;;;68.78;24.17;;;;;;;;;;5000758;28;20050;-78
2022/12/18 06:16:59;;;;;;;86.70;26.10;;;;;;;;;;4998684;28;20045;-78
2022/12/18 06:19:27;;;;;;;78.85;27.13;;;;;;;;;;5004250;28;20049;-78
2022/12/18 06:21:54;;;;;;;74.93;24.20;;;;;;;;;;4998231;28;20069;-77
2022/12/18 06:24:22;;;;;;;78.95;24.92;;;;;;;;;;5003666;28;20045;-77
2022/12/18 06:26:50;;;;;;;71.43;25.58;;;;;;;;;;5003938;28;20057;-77
2022/12/18 06:29:17;;;;;;;74.38;25.30;;;;;;;;;;5003876;28;20053;-78
2022/12/18 06:31:44;;;;;;;73.28;24.65;;;;;;;;;;5003002;28;20072;-77
2022/12/18 06:34:11;;;;;;;78.93;25.92;;;;;;;;;;5002689;28;20618;-77
2022/12/18 06:36:39;;;;;;;71.65;23.92;;;;;;;;;;5003208;28;20500;-77
2022/12/18 06:39:06;;;;;;;69.22;23.77;;;;;;;;;;5002079;28;20058;-77
2022/12/18 06:41:35;;;;;;;73.05;24.45;;;;;;;;;;5003420;28;20084;-77
2022/12/18 06:44:02;;;;;;;75.22;25.77;;;;;;;;;;5001386;28;20107;-77
2022/12/18 06:46:30;;;;;;;65.95;24.15;;;;;;;;;;5005462;28;20049;-77
2022/12/18 06:48:57;;;;;;;73.85;23.77;;;;;;;;;;5007751;28;20045;-77
2022/12/18 06:51:25;;;;;;;67.90;24.17;;;;;;;;;;5018851;28;20103;-77
2022/12/18 06:53:53;;;;;;;61.63;21.83;;;;;;;;;;5009325;28;20052;-76
2022/12/18 06:56:20;;;;;;;66.03;23.00;;;;;;;;;;5006457;28;20064;-77
2022/12/18 06:58:48;;;;;;;51.13;19.95;;;;;;;;;;5007354;28;20056;-77
2022/12/18 07:01:16;;;;;;;64.78;21.58;;;;;;;;;;5001689;28;20049;-77
2022/12/18 07:03:43;;;;;;;64.25;21.80;;;;;;;;;;5009366;28;20071;-77
2022/12/18 07:06:15;;;;;;;60.30;19.98;;;;;;;;;;5008028;28;20057;-77
2022/12/18 07:08:43;;;;;;;62.63;21.35;;;;;;;;;;5001114;28;20053;-77
2022/12/18 07:11:10;;;;;;;58.72;21.08;;;;;;;;;;5005502;28;20463;-77
2022/12/18 07:13:37;;;;;;;58.08;20.90;;;;;;;;;;4996122;28;20732;-77
2022/12/18 07:16:07;;;;;;;58.95;20.30;;;;;;;;;;4995997;28;21167;-77
2022/12/18 07:18:34;;;;;;;63.83;22.38;;;;;;;;;;5001323;28;20065;-77
2022/12/18 07:21:04;;;;;;;56.63;20.33;;;;;;;;;;4996758;28;20452;-77
2022/12/18 07:23:31;;;;;;;57.47;19.55;;;;;;;;;;4996348;28;20058;-72
2022/12/18 07:26:02;;;;;;;55.30;18.45;;;;;;;;;;5000281;28;20076;-76
2022/12/18 07:28:29;;;;;;;55.55;19.33;;;;;;;;;;5034103;28;20603;-77
2022/12/18 07:30:56;;;;;;;49.53;17.75;;;;;;;;;;5002576;28;20052;-75
2022/12/18 07:33:25;;;;;;;52.35;18.23;;;;;;;;;;5000482;28;20576;-78
2022/12/18 07:35:52;;;;;;;50.47;17.15;;;;;;;;;;5001285;28;20055;-77
2022/12/18 07:38:19;;;;;;;47.97;17.25;;;;;;;;;;5001166;28;20092;-77
2022/12/18 07:40:46;;;;;;;47.08;16.85;;;;;;;;;;4999863;28;20057;-76
2022/12/18 07:43:14;;;;;;;42.75;15.82;;;;;;;;;;5000805;28;20044;-77
2022/12/18 07:45:41;;;;;;;48.70;16.77;;;;;;;;;;5000197;28;20057;-77
2022/12/18 07:48:08;;;;;;;45.95;17.02;;;;;;;;;;5001084;28;20045;-76
2022/12/18 07:50:37;;;;;;;44.55;16.35;;;;;;;;;;5001368;28;20064;-76
2022/12/18 07:53:04;;;;;;;43.88;16.73;;;;;;;;;;5000495;28;20057;-77
2022/12/18 07:55:32;;;;;;;43.97;16.58;;;;;;;;;;4996924;28;20053;-76
2022/12/18 07:58:02;;;;;;;47.13;16.05;;;;;;;;;;4997719;28;20060;-76
2022/12/18 08:00:29;;;;;;;49.85;16.58;;;;;;;;;;4996971;28;20061;-76
2022/12/18 08:02:57;;;;;;;51.40;17.45;;;;;;;;;;4993286;28;20496;-77
2022/12/18 08:05:24;;;;;;;41.85;16.27;;;;;;;;;;5002452;28;20046;-77
2022/12/18 08:07:53;;;;;;;41.92;17.10;;;;;;;;;;5002007;28;20053;-77
2022/12/18 08:10:20;;;;;;;42.72;16.67;;;;;;;;;;4999372;28;20072;-77
2022/12/18 08:12:50;;;;;;;43.38;16.35;;;;;;;;;;5002898;28;20057;-77
2022/12/18 08:15:17;;;;;;;50.55;17.27;;;;;;;;;;5002031;28;20041;-76
2022/12/18 08:17:45;;;;;;;40.00;16.45;;;;;;;;;;5001639;28;20061;-76
2022/12/18 08:20:13;;;;;;;47.65;16.10;;;;;;;;;;5000985;28;20065;-76
2022/12/18 08:22:41;;;;;;;41.92;16.17;;;;;;;;;;5001987;28;20081;-77
2022/12/18 08:25:10;;;;;;;45.28;16.75;;;;;;;;;;5000392;28;20141;-77
2022/12/18 08:27:37;;;;;;;42.63;16.65;;;;;;;;;;5000833;28;20763;-77
2022/12/18 08:30:05;;;;;;;46.17;15.90;;;;;;;;;;5002325;28;20053;-77
2022/12/18 08:32:33;;;;;;;44.72;15.40;;;;;;;;;;5032981;28;20445;-77
2022/12/18 08:35:01;;;;;;;40.00;16.13;;;;;;;;;;4989367;28;20080;-77
2022/12/18 08:37:28;;;;;;;37.05;15.55;;;;;;;;;;5004683;28;20045;-77
2022/12/18 08:39:55;;;;;;;43.25;16.63;;;;;;;;;;4999461;28;20049;-77
2022/12/18 08:45:09;;;;;;;38.13;14.20;;;;;;;;;;5001052;28;20045;-77
2022/12/18 08:47:37;;;;;;;37.83;14.30;;;;;;;;;;5006473;28;20054;-76
2022/12/18 08:50:04;;;;;;;39.20;15.07;;;;;;;;;;4985721;28;20495;-77
2022/12/18 08:52:33;;;;;;;33.65;15.00;;;;;;;;;;4994222;28;20053;-77
2022/12/18 08:55:00;;;;;;;36.17;15.55;;;;;;;;;;5003092;28;20044;-77
2022/12/18 08:57:29;;;;;;;40.70;14.60;;;;;;;;;;5004621;28;20057;-77
2022/12/18 08:59:56;;;;;;;39.80;14.27;;;;;;;;;;5005139;28;20152;-77
2022/12/18 09:02:23;;;;;;;36.47;15.13;;;;;;;;;;5001945;28;20068;-77
2022/12/18 09:04:50;;;;;;;39.75;15.60;;;;;;;;;;5000215;28;20092;-76
2022/12/18 09:07:18;;;;;;;34.05;13.63;;;;;;;;;;5009612;28;20712;-77
2022/12/18 09:09:45;;;;;;;36.63;13.68;;;;;;;;;;5004972;28;20052;-76
2022/12/18 09:12:12;;;;;;;38.10;14.50;;;;;;;;;;5005638;28;20628;-77
2022/12/18 09:14:41;;;;;;;34.22;14.20;;;;;;;;;;5005128;28;20042;-76
2022/12/18 09:17:09;;;;;;;33.58;14.07;;;;;;;;;;5005750;28;20053;-76
2022/12/18 09:19:36;;;;;;;36.47;14.30;;;;;;;;;;5004744;28;20065;-77
2022/12/18 09:22:03;;;;;;;32.92;13.50;;;;;;;;;;5004821;28;20071;-76
2022/12/18 09:24:30;;;;;;;33.13;13.30;;;;;;;;;;5002498;28;20064;-77
2022/12/18 09:26:58;;;;;;;37.33;14.20;;;;;;;;;;5004465;28;20060;-77
2022/12/18 09:29:25;;;;;;;35.25;13.10;;;;;;;;;;5005262;28;20138;-77
2022/12/18 09:31:54;;;;;;;35.13;13.48;;;;;;;;;;5005418;28;20053;-77
2022/12/18 09:34:21;;;;;;;31.67;13.50;;;;;;;;;;5004248;28;20053;-77
2022/12/18 09:36:49;;;;;;;31.52;13.63;;;;;;;;;;5004811;28;20099;-77
2022/12/18 09:39:16;;;;;;;33.58;12.75;;;;;;;;;;5004823;28;20057;-77
2022/12/18 09:41:49;;;;;;;33.45;12.88;;;;;;;;;;5004605;28;20049;-77
2022/12/18 09:44:25;;;;;;;31.58;13.00;;;;;;;;;;5003917;28;20049;-77
2022/12/18 09:46:56;;;;;;;26.02;10.77;;;;;;;;;;5007312;28;20052;-76
2022/12/18 09:49:26;;;;;;;27.00;11.23;;;;;;;;;;5006204;28;20045;-77
2022/12/18 09:51:55;;;;;;;30.42;12.57;;;;;;;;;;4998024;28;20054;-77
2022/12/18 09:54:26;;;;;;;31.50;12.48;;;;;;;;;;5006473;28;20116;-77
2022/12/18 09:56:53;;;;;;;28.83;11.98;;;;;;;;;;5005917;28;20046;-77
2022/12/18 09:59:24;;;;;;;33.90;11.80;;;;;;;;;;5007477;28;20139;-77
2022/12/18 10:01:51;;;;;;;29.88;12.38;;;;;;;;;;5004830;28;20090;-76
2022/12/18 10:04:20;;;;;;;30.60;11.50;;;;;;;;;;5004017;28;20051;-75
2022/12/18 10:06:52;;;;;;;28.17;12.57;;;;;;;;;;5013198;28;20057;-76
2022/12/18 10:09:26;;;;;;;28.40;11.52;;;;;;;;;;4997176;28;20063;-77
2022/12/18 10:12:00;;;;;;;29.20;12.23;;;;;;;;;;5004768;28;20058;-76
2022/12/18 10:14:30;;;;;;;25.73;11.32;;;;;;;;;;5004072;28;20045;-76
2022/12/18 10:17:00;;;;;;;26.70;11.65;;;;;;;;;;5002850;28;20060;-76
2022/12/18 10:19:38;;;;;;;28.42;11.85;;;;;;;;;;5002688;28;20049;-76
2022/12/18 10:22:10;;;;;;;26.55;10.73;;;;;;;;;;5004334;28;20073;-76
2022/12/18 10:24:41;;;;;;;24.63;10.32;;;;;;;;;;4986172;28;20052;-76
2022/12/18 10:27:15;;;;;;;27.63;10.15;;;;;;;;;;5003012;28;20053;-76
2022/12/18 10:29:43;;;;;;;26.52;10.85;;;;;;;;;;5003044;28;20053;-76
2022/12/18 10:32:14;;;;;;;25.17;10.63;;;;;;;;;;5004917;28;20148;-76
2022/12/18 10:34:43;;;;;;;25.90;11.30;;;;;;;;;;4997587;28;20615;-76
2022/12/18 10:37:13;;;;;;;33.78;10.57;;;;;;;;;;5002356;28;20076;-76
2022/12/18 10:39:41;;;;;;;24.02;10.57;;;;;;;;;;4997327;28;20054;-76
2022/12/18 10:42:12;;;;;;;20.95;9.77;;;;;;;;;;5003345;28;20829;-77
2022/12/18 10:44:40;;;;;;;22.75;10.10;;;;;;;;;;4995910;28;20381;-76
2022/12/18 10:47:12;;;;;;;24.52;11.10;;;;;;;;;;5004933;28;20052;-76
2022/12/18 10:49:43;;;;;;;24.10;10.55;;;;;;;;;;5003232;28;20048;-76
2022/12/18 10:52:16;;;;;;;20.90;9.57;;;;;;;;;;5000725;28;20049;-76
2022/12/18 10:54:48;;;;;;;22.08;9.30;;;;;;;;;;5000305;28;20176;-76
2022/12/18 10:57:16;;;;;;;22.63;9.80;;;;;;;;;;4999730;28;20052;-76
2022/12/18 10:59:51;;;;;;;20.55;9.27;;;;;;;;;;4998656;28;20059;-75
2022/12/18 11:02:27;;;;;;;20.70;9.27;;;;;;;;;;5004059;28;20598;-76
2022/12/18 11:04:54;;;;;;;20.58;9.82;;;;;;;;;;4999289;28;20526;-76
2022/12/18 11:07:22;;;;;;;17.38;7.95;;;;;;;;;;5001171;28;20060;-75
2022/12/18 11:10:01;;;;;;;17.90;8.32;;;;;;;;;;4999097;28;20073;-76
2022/12/18 11:12:29;;;;;;;20.90;8.48;;;;;;;;;;5001598;28;20226;-76
2022/12/18 11:14:57;;;;;;;16.45;7.45;;;;;;;;;;5001452;28;20046;-75
2022/12/18 11:17:29;;;;;;;16.95;7.38;;;;;;;;;;5002155;28;20060;-76
2022/12/18 11:19:57;;;;;;;19.08;8.25;;;;;;;;;;4995389;28;20091;-75
2022/12/18 11:22:27;;;;;;;16.50;7.53;;;;;;;;;;5010450;28;20049;-75
2022/12/18 11:24:56;;;;;;;13.55;7.07;;;;;;;;;;5001593;28;20048;-75
2022/12/18 11:27:24;;;;;;;14.75;7.00;;;;;;;;;;5003509;28;20045;-75
2022/12/18 11:29:52;;;;;;;14.25;7.13;;;;;;;;;;5000551;28;20048;-76
2022/12/18 11:32:29;;;;;;;15.38;6.97;;;;;;;;;;5003793;28;20643;-75
2022/12/18 11:34:59;;;;;;;16.90;6.88;;;;;;;;;;5001749;28;20045;-75
2022/12/18 11:37:28;;;;;;;15.13;6.50;;;;;;;;;;5001153;28;20564;-75
2022/12/18 11:39:58;;;;;;;11.95;6.22;;;;;;;;;;4997014;28;20053;-75
2022/12/18 11:42:27;;;;;;;13.27;6.07;;;;;;;;;;5000087;28;20530;-75
2022/12/18 11:44:58;;;;;;;12.65;6.20;;;;;;;;;;5000759;28;20042;-75
2022/12/18 11:47:30;;;;;;;12.60;6.00;;;;;;;;;;5006599;28;20571;-75
2022/12/18 11:50:01;;;;;;;13.93;6.88;;;;;;;;;;5001434;28;20045;-76
2022/12/18 11:52:33;;;;;;;12.23;6.25;;;;;;;;;;5001529;28;20858;-74
2022/12/18 11:55:02;;;;;;;13.05;6.70;;;;;;;;;;5001620;28;20045;-75
2022/12/18 11:57:35;;;;;;;17.10;7.20;;;;;;;;;;5002343;28;20519;-75
2022/12/18 12:00:05;;;;;;;13.07;6.10;;;;;;;;;;5001816;28;20060;-76
2022/12/18 12:02:40;;;;;;;12.45;6.53;;;;;;;;;;5002255;28;20065;-79
2022/12/18 12:05:23;;;;;;;13.32;6.28;;;;;;;;;;5001174;28;20053;-75
2022/12/18 12:07:57;;;;;;;14.35;5.82;;;;;;;;;;5002012;28;20095;-75
2022/12/18 12:10:29;;;;;;;12.52;5.75;;;;;;;;;;5002411;28;20053;-75
2022/12/18 12:13:02;;;;;;;12.35;6.05;;;;;;;;;;5031675;28;20053;-75
2022/12/18 12:15:36;;;;;;;11.48;5.72;;;;;;;;;;5001750;28;20038;-75
2022/12/18 12:18:08;;;;;;;12.80;6.40;;;;;;;;;;5000932;28;20774;-75
2022/12/18 12:20:43;;;;;;;14.85;5.85;;;;;;;;;;5001708;28;20060;-74
2022/12/18 12:23:16;;;;;;;9.95;5.82;;;;;;;;;;5019828;28;20419;-75
2022/12/18 12:25:48;;;;;;;12.93;6.25;;;;;;;;;;5000047;28;20053;-75
2022/12/18 12:28:21;;;;;;;12.27;6.22;;;;;;;;;;5033565;28;20037;-75
2022/12/18 12:30:53;;;;;;;13.88;6.68;;;;;;;;;;5001534;28;20610;-76
2022/12/18 12:33:25;;;;;;;13.05;6.13;;;;;;;;;;4999822;28;20052;-74
2022/12/18 12:35:56;;;;;;;12.82;6.30;;;;;;;;;;5001759;28;20920;-75
2022/12/18 12:38:27;;;;;;;10.57;5.78;;;;;;;;;;5000542;28;20204;-75
2022/12/18 12:40:56;;;;;;;11.60;5.95;;;;;;;;;;5001983;28;20789;-74
2022/12/18 12:43:26;;;;;;;12.73;6.22;;;;;;;;;;5005936;28;20072;-76
2022/12/18 12:45:55;;;;;;;12.55;5.93;;;;;;;;;;5007140;28;20709;-74
2022/12/18 12:48:25;;;;;;;13.88;5.97;;;;;;;;;;5008100;28;20049;-76
2022/12/18 12:50:54;;;;;;;14.13;6.57;;;;;;;;;;5002906;28;20057;-75
2022/12/18 12:53:26;;;;;;;12.13;6.20;;;;;;;;;;5005389;28;20073;-76
2022/12/18 12:55:54;;;;;;;12.80;6.18;;;;;;;;;;5004703;28;20096;-74
2022/12/18 12:58:24;;;;;;;13.52;6.50;;;;;;;;;;5009786;28;20065;-74
2022/12/18 13:00:57;;;;;;;13.48;6.60;;;;;;;;;;5007056;28;20053;-75
2022/12/18 13:03:31;;;;;;;10.52;5.95;;;;;;;;;;5007707;28;20054;-74
2022/12/18 13:06:02;;;;;;;12.40;5.80;;;;;;;;;;5008865;28;20049;-76
2022/12/18 13:08:31;;;;;;;12.25;6.10;;;;;;;;;;5006301;28;20053;-74
2022/12/18 13:13:50;;;;;;;11.45;5.70;;;;;;;;;;5006643;28;20041;-75
2022/12/18 13:16:19;;;;;;;13.13;6.35;;;;;;;;;;5005311;28;20528;-74
2022/12/18 13:18:50;;;;;;;11.65;5.47;;;;;;;;;;5004101;28;20050;-76
2022/12/18 13:21:23;;;;;;;14.20;5.75;;;;;;;;;;5004759;28;20049;-75
2022/12/18 13:23:52;;;;;;;12.07;5.80;;;;;;;;;;5005906;28;20361;-75
2022/12/18 13:26:35;;;;;;;14.32;6.05;;;;;;;;;;5036933;28;20057;-75
2022/12/18 13:29:04;;;;;;;11.38;5.75;;;;;;;;;;5019150;28;20116;-75
2022/12/18 13:32:04;;;;;;;10.20;5.30;;;;;;;;;;5006988;28;20643;-75
2022/12/18 13:34:32;;;;;;;9.70;5.20;;;;;;;;;;4958886;28;20082;-74
2022/12/18 13:37:19;;;;;;;10.45;5.07;;;;;;;;;;4940424;28;20070;-74
2022/12/18 13:39:48;;;;;;;12.75;5.55;;;;;;;;;;4979148;28;20076;-75
2022/12/18 13:45:29;;;;;;;11.95;5.53;;;;;;;;;;4990512;28;20683;-74
2022/12/18 13:47:56;;;;;;;10.48;5.43;;;;;;;;;;5002910;28;20049;-75
2022/12/18 13:50:24;;;;;;;10.27;5.13;;;;;;;;;;5001044;28;20066;-74
2022/12/18 13:52:52;;;;;;;11.00;5.40;;;;;;;;;;5003537;28;20053;-75
2022/12/18 13:55:21;;;;;;;10.80;4.80;;;;;;;;;;5002669;28;20046;-75
2022/12/18 13:57:48;;;;;;;11.80;5.30;;;;;;;;;;5001990;28;20045;-75
2022/12/18 14:00:25;;;;;;;10.32;5.07;;;;;;;;;;5003209;28;20076;-74
2022/12/18 14:02:53;;;;;;;10.18;5.03;;;;;;;;;;5002884;28;20420;-75
2022/12/18 14:05:23;;;;;;;11.52;5.05;;;;;;;;;;5005461;28;20056;-75
2022/12/18 14:07:50;;;;;;;10.80;5.25;;;;;;;;;;5002097;28;20052;-75
2022/12/18 14:10:18;;;;;;;9.00;5.00;;;;;;;;;;5006007;28;20818;-75
2022/12/18 14:12:57;;;;;;;10.27;4.97;;;;;;;;;;4999553;28;20063;-74
2022/12/18 14:15:28;;;;;;;10.43;5.40;;;;;;;;;;5007582;28;20132;-75
2022/12/18 14:17:56;;;;;;;9.85;4.78;;;;;;;;;;5001547;28;20633;-76
2022/12/18 14:20:24;;;;;;;8.00;4.68;;;;;;;;;;5005203;28;20567;-75
2022/12/18 14:22:51;;;;;;;9.18;4.82;;;;;;;;;;4997472;28;20053;-73
2022/12/18 14:25:20;;;;;;;11.43;5.30;;;;;;;;;;5011950;28;20049;-75
2022/12/18 14:27:49;;;;;;;9.07;4.68;;;;;;;;;;5005577;28;20588;-73
2022/12/18 14:30:34;;;;;;;9.43;4.70;;;;;;;;;;5003191;28;20609;-75
2022/12/18 14:33:05;;;;;;;8.93;4.82;;;;;;;;;;5018029;28;20400;-75
2022/12/18 14:35:33;;;;;;;10.23;5.07;;;;;;;;;;4995013;28;20049;-75
2022/12/18 14:38:19;;;;;;;12.02;4.53;;;;;;;;;;4997217;28;20533;-75
2022/12/18 14:40:46;;;;;;;10.68;4.85;;;;;;;;;;4998714;28;20053;-75
2022/12/18 14:43:15;;;;;;;9.07;3.63;;;;;;;;;;5000509;28;20680;-75